Southgate, MI (48195)

05:26 EDT le 29 juillet 2015 (GMT -0400)
Southgate | | Change Station
CLOSE
Current Station
Stations météorologiques personnelles
Location: Southgate, MI
Altitude: 587 ft
Stations météo à proximité

Alt. 587 ft 42.21 °N, 83.19 °W | Updated 1 minute ago

Partiellement nuageux
Partiellement nuageux
69.1 ° F
Paraît 69.1 ° F
N
0.0
Vent Variable Vent de SE
Gusts 0.0 mph

Aujourd'hui
Haut(e) -- | Bas -- ° F
--% Risque de précip.
Hier
Haut(e) -- | Bas -- ° F
Precip. -- pouce
6:22 AM 8:55 PM
Lune gibbeuse croissante, 94% visible
Pression 29.94 pouce
Visibilité 8.0 Miles terrestres
Nuages Nuageux 15000 ft
Couvert 23000 ft
Point de rosée 67 ° F
Humidité 92%
Précipitations 0.00 pouce
Profondeur de la couche neigeuse Non disponible.
UV 0.0 sur 12
Pollen 4.60 sur 12
Qualité de l'air Non disponible.
Flu Activity Non disponible.
METAR KDTW 290853Z 00000KT 8SM BKN150 OVC230 21/19 A2995 RMK AO2 SLP138 T02110189 58017

More Conditions Fewer Conditions

Pression 29.94 pouce
Visibilité 8.0 Miles terrestres
Nuages Nuageux 15000 ft
Couvert 23000 ft
Point de rosée 67 ° F
Humidité 92%
Précipitations 0.00 pouce
Profondeur de la couche neigeuse Non disponible.
UV 0.0 sur 12
Pollen 4.60 sur 12
Qualité de l'air Non disponible.
Flu Activity Non disponible.
METAR KDTW 290853Z 00000KT 8SM BKN150 OVC230 21/19 A2995 RMK AO2 SLP138 T02110189 58017

More Conditions Fewer Conditions

10-Day Weather Forecast

×

Almanac

Astronomie

Jul. 29, 2015 Lever Coucher
Temps réel
Crépuscule civil
Crépuscule nautique
Crépuscule astronomique
Lune
Durée de lumière visible
Longueur du jour
Tomorrow will be .
, % of the Moon is Illuminated

Extrêmes aujourd'hui

State Highs State Lows

Community

WunderPhotos

Upload Photos

1,842,068 Photos téléchargées !

WunderBlogs® & News

Nearby

Qualité de l'air

  Qualité de l'air Indice de la qualité de l'air Polluant
Not available.

Épaisseur de neige

Station Depth Altitude

Activité sismique

Ville Distance Mag. Time & Date
Minimum magnitude displayed is 2.5.

Températures des eaux côtières

Lieu Température

Stations

Stations météo à proximité

Emplacement de la station Température Refroidissement éolien Point de rosée Humidité Vent Precip. Alt. Mise à jour Type